sensor_id;sensor_type;location;lat;lon;timestamp;pressure;altitude;pressure_sealevel;temperature;humidity
62725;BME280;49026;52.600;4.694;2023-04-01T00:00:06;99019.25;;;8.86;88.89
62725;BME280;49026;52.600;4.694;2023-04-01T00:02:31;99021.88;;;8.86;89.23
62725;BME280;49026;52.600;4.694;2023-04-01T00:04:58;99025.31;;;8.86;88.88
62725;BME280;49026;52.600;4.694;2023-04-01T00:07:24;99029.72;;;8.86;88.86
62725;BME280;49026;52.600;4.694;2023-04-01T00:09:49;99032.25;;;8.87;89.27
62725;BME280;49026;52.600;4.694;2023-04-01T00:12:15;99031.28;;;8.88;88.89
62725;BME280;49026;52.600;4.694;2023-04-01T00:14:43;99030.38;;;8.89;89.29
62725;BME280;49026;52.600;4.694;2023-04-01T00:17:08;99041.59;;;8.92;89.15
62725;BME280;49026;52.600;4.694;2023-04-01T00:19:41;99034.69;;;8.90;88.91
62725;BME280;49026;52.600;4.694;2023-04-01T00:22:06;99038.13;;;8.91;88.94
62725;BME280;49026;52.600;4.694;2023-04-01T00:24:32;99038.97;;;8.92;89.37
62725;BME280;49026;52.600;4.694;2023-04-01T00:26:57;99040.66;;;8.93;89.25
62725;BME280;49026;52.600;4.694;2023-04-01T00:29:23;99048.53;;;8.93;89.13
62725;BME280;49026;52.600;4.694;2023-04-01T00:31:53;99051.31;;;8.89;89.33
62725;BME280;49026;52.600;4.694;2023-04-01T00:34:18;99042.63;;;8.89;89.37
62725;BME280;49026;52.600;4.694;2023-04-01T00:36:43;99045.16;;;8.90;89.08
62725;BME280;49026;52.600;4.694;2023-04-01T00:39:09;99055.63;;;8.90;89.40
62725;BME280;49026;52.600;4.694;2023-04-01T00:41:35;99053.03;;;8.90;88.98
62725;BME280;49026;52.600;4.694;2023-04-01T00:44:29;99060.88;;;8.90;89.25
62725;BME280;49026;52.600;4.694;2023-04-01T00:46:55;99067.03;;;8.89;89.19
62725;BME280;49026;52.600;4.694;2023-04-01T00:49:26;99060.19;;;8.87;88.94
62725;BME280;49026;52.600;4.694;2023-04-01T00:51:56;99067.22;;;8.86;88.95
62725;BME280;49026;52.600;4.694;2023-04-01T00:54:24;99078.66;;;8.85;89.24
62725;BME280;49026;52.600;4.694;2023-04-01T00:56:59;99070.97;;;8.82;89.48
62725;BME280;49026;52.600;4.694;2023-04-01T00:59:29;99071.72;;;8.84;89.43
62725;BME280;49026;52.600;4.694;2023-04-01T01:01:57;99076.78;;;8.87;89.20
62725;BME280;49026;52.600;4.694;2023-04-01T01:04:26;99068.84;;;8.89;89.51
62725;BME280;49026;52.600;4.694;2023-04-01T01:09:31;99077.53;;;8.89;89.61
62725;BME280;49026;52.600;4.694;2023-04-01T01:14:45;99078.34;;;8.90;89.40
62725;BME280;49026;52.600;4.694;2023-04-01T01:34:36;99115.81;;;8.92;89.41
62725;BME280;49026;52.600;4.694;2023-04-01T01:37:09;99122.69;;;8.93;88.99
62725;BME280;49026;52.600;4.694;2023-04-01T01:39:37;99114.94;;;8.92;89.39
62725;BME280;49026;52.600;4.694;2023-04-01T01:42:06;99127.19;;;8.91;89.25
62725;BME280;49026;52.600;4.694;2023-04-01T01:44:37;99129.00;;;8.90;89.26
62725;BME280;49026;52.600;4.694;2023-04-01T01:47:03;99132.53;;;8.89;89.39
62725;BME280;49026;52.600;4.694;2023-04-01T01:49:31;99143.94;;;8.88;89.64
62725;BME280;49026;52.600;4.694;2023-04-01T01:51:58;99137.78;;;8.89;89.23
62725;BME280;49026;52.600;4.694;2023-04-01T01:54:25;99148.25;;;8.89;89.59
62725;BME280;49026;52.600;4.694;2023-04-01T01:56:57;99148.25;;;8.89;89.45
62725;BME280;49026;52.600;4.694;2023-04-01T01:59:26;99153.47;;;8.89;89.93
62725;BME280;49026;52.600;4.694;2023-04-01T02:01:54;99152.56;;;8.90;89.29
62725;BME280;49026;52.600;4.694;2023-04-01T02:04:21;99163.03;;;8.90;89.49
62725;BME280;49026;52.600;4.694;2023-04-01T02:06:56;99165.66;;;8.90;89.44
62725;BME280;49026;52.600;4.694;2023-04-01T02:09:25;99169.94;;;8.92;89.30
62725;BME280;49026;52.600;4.694;2023-04-01T02:12:04;99177.81;;;8.92;89.67
62725;BME280;49026;52.600;4.694;2023-04-01T02:17:19;99190.16;;;8.89;89.16
62725;BME280;49026;52.600;4.694;2023-04-01T02:19:57;99194.66;;;8.87;89.64
62725;BME280;49026;52.600;4.694;2023-04-01T02:22:27;99198.19;;;8.86;89.47
62725;BME280;49026;52.600;4.694;2023-04-01T02:24:55;99203.53;;;8.85;89.98
62725;BME280;49026;52.600;4.694;2023-04-01T02:27:24;99202.69;;;8.84;89.54
62725;BME280;49026;52.600;4.694;2023-04-01T02:29:53;99207.09;;;8.84;89.55
62725;BME280;49026;52.600;4.694;2023-04-01T02:32:19;99202.69;;;8.84;89.58
62725;BME280;49026;52.600;4.694;2023-04-01T02:34:46;99213.34;;;8.81;89.47
62725;BME280;49026;52.600;4.694;2023-04-01T02:37:13;99215.97;;;8.81;89.57
62725;BME280;49026;52.600;4.694;2023-04-01T02:39:41;99216.78;;;8.82;89.54
62725;BME280;49026;52.600;4.694;2023-04-01T02:42:10;99217.75;;;8.81;89.58
62725;BME280;49026;52.600;4.694;2023-04-01T02:44:35;99213.34;;;8.81;90.08
62725;BME280;49026;52.600;4.694;2023-04-01T02:47:01;99227.34;;;8.80;89.68
62725;BME280;49026;52.600;4.694;2023-04-01T02:49:29;99231.75;;;8.80;89.64
62725;BME280;49026;52.600;4.694;2023-04-01T02:51:54;99234.47;;;8.78;89.92
62725;BME280;49026;52.600;4.694;2023-04-01T02:54:20;99232.72;;;8.79;90.18
62725;BME280;49026;52.600;4.694;2023-04-01T02:56:45;99246.81;;;8.76;89.99
62725;BME280;49026;52.600;4.694;2023-04-01T02:59:11;99240.75;;;8.76;90.01
62725;BME280;49026;52.600;4.694;2023-04-01T03:01:37;99250.34;;;8.75;89.99
62725;BME280;49026;52.600;4.694;2023-04-01T03:04:02;99254.75;;;8.75;90.13
62725;BME280;49026;52.600;4.694;2023-04-01T03:06:28;99259.06;;;8.76;90.03
62725;BME280;49026;52.600;4.694;2023-04-01T03:08:56;99261.69;;;8.76;89.70
62725;BME280;49026;52.600;4.694;2023-04-01T03:11:21;99268.59;;;8.77;90.25
62725;BME280;49026;52.600;4.694;2023-04-01T03:13:46;99273.00;;;8.76;90.02
62725;BME280;49026;52.600;4.694;2023-04-01T03:16:12;99277.41;;;8.76;89.85
62725;BME280;49026;52.600;4.694;2023-04-01T03:18:38;99283.66;;;8.73;89.92
62725;BME280;49026;52.600;4.694;2023-04-01T03:21:18;99290.69;;;8.73;89.92
62725;BME280;49026;52.600;4.694;2023-04-01T03:23:43;99296.09;;;8.69;90.20
62725;BME280;49026;52.600;4.694;2023-04-01T03:26:09;99298.03;;;8.66;90.04
62725;BME280;49026;52.600;4.694;2023-04-01T03:28:34;99297.19;;;8.65;90.25
62725;BME280;49026;52.600;4.694;2023-04-01T03:31:00;99304.34;;;8.62;90.60
62725;BME280;49026;52.600;4.694;2023-04-01T03:33:28;99308.84;;;8.60;90.26
62725;BME280;49026;52.600;4.694;2023-04-01T03:35:53;99308.94;;;8.58;90.59
62725;BME280;49026;52.600;4.694;2023-04-01T03:38:21;99309.88;;;8.57;90.13
62725;BME280;49026;52.600;4.694;2023-04-01T03:40:46;99312.59;;;8.56;90.25
62725;BME280;49026;52.600;4.694;2023-04-01T03:43:13;99314.41;;;8.53;90.41
62725;BME280;49026;52.600;4.694;2023-04-01T03:45:50;99315.44;;;8.51;90.46
62725;BME280;49026;52.600;4.694;2023-04-01T03:48:15;99325.25;;;8.47;90.18
62725;BME280;49026;52.600;4.694;2023-04-01T03:50:41;99314.88;;;8.46;90.42
62725;BME280;49026;52.600;4.694;2023-04-01T03:53:09;99317.56;;;8.44;90.35
62725;BME280;49026;52.600;4.694;2023-04-01T03:55:36;99335.06;;;8.44;90.19
62725;BME280;49026;52.600;4.694;2023-04-01T03:58:01;99341.22;;;8.43;90.36
62725;BME280;49026;52.600;4.694;2023-04-01T04:00:28;99343.81;;;8.43;90.37
62725;BME280;49026;52.600;4.694;2023-04-01T04:02:54;99355.13;;;8.43;90.36
62725;BME280;49026;52.600;4.694;2023-04-01T04:05:22;99355.13;;;8.43;90.34
62725;BME280;49026;52.600;4.694;2023-04-01T04:07:47;99360.38;;;8.43;90.21
62725;BME280;49026;52.600;4.694;2023-04-01T04:10:12;99364.78;;;8.43;90.29
62725;BME280;49026;52.600;4.694;2023-04-01T04:12:40;99363.84;;;8.44;90.39
62725;BME280;49026;52.600;4.694;2023-04-01T04:15:06;99365.44;;;8.46;90.57
62725;BME280;49026;52.600;4.694;2023-04-01T04:17:32;99369.75;;;8.47;90.70
62725;BME280;49026;52.600;4.694;2023-04-01T04:19:57;99378.53;;;8.46;90.60
62725;BME280;49026;52.600;4.694;2023-04-01T04:22:22;99385.53;;;8.46;90.81
62725;BME280;49026;52.600;4.694;2023-04-01T04:24:48;99384.78;;;8.44;90.62
62725;BME280;49026;52.600;4.694;2023-04-01T04:27:13;99390.06;;;8.42;90.28
62725;BME280;49026;52.600;4.694;2023-04-01T04:29:43;99398.00;;;8.41;90.49
62725;BME280;49026;52.600;4.694;2023-04-01T04:32:08;99399.09;;;8.37;90.57
62725;BME280;49026;52.600;4.694;2023-04-01T04:34:34;99397.50;;;8.34;91.02
62725;BME280;49026;52.600;4.694;2023-04-01T04:36:59;99401.78;;;8.35;90.93
62725;BME280;49026;52.600;4.694;2023-04-01T04:39:25;99400.19;;;8.32;91.40
62725;BME280;49026;52.600;4.694;2023-04-01T04:41:50;99404.75;;;8.29;91.54
62725;BME280;49026;52.600;4.694;2023-04-01T04:44:15;99409.19;;;8.27;91.44
62725;BME280;49026;52.600;4.694;2023-04-01T04:46:41;99414.53;;;8.25;91.23
62725;BME280;49026;52.600;4.694;2023-04-01T04:49:06;99415.47;;;8.24;91.72
62725;BME280;49026;52.600;4.694;2023-04-01T04:51:32;99421.75;;;8.20;91.73
62725;BME280;49026;52.600;4.694;2023-04-01T04:54:00;99421.75;;;8.20;91.17
62725;BME280;49026;52.600;4.694;2023-04-01T04:56:28;99427.19;;;8.17;91.77
62725;BME280;49026;52.600;4.694;2023-04-01T04:58:54;99434.25;;;8.15;91.58
62725;BME280;49026;52.600;4.694;2023-04-01T05:01:19;99437.88;;;8.12;91.31
62725;BME280;49026;52.600;4.694;2023-04-01T05:03:47;99450.97;;;8.12;91.75
62725;BME280;49026;52.600;4.694;2023-04-01T05:06:14;99450.28;;;8.09;91.93
62725;BME280;49026;52.600;4.694;2023-04-01T05:08:41;99450.38;;;8.07;92.04
62725;BME280;49026;52.600;4.694;2023-04-01T05:11:12;99454.06;;;8.03;91.43
62725;BME280;49026;52.600;4.694;2023-04-01T05:13:38;99461.06;;;8.03;92.03
62725;BME280;49026;52.600;4.694;2023-04-01T05:16:03;99468.06;;;8.02;91.94
62725;BME280;49026;52.600;4.694;2023-04-01T05:18:32;99466.44;;;8.00;91.47
62725;BME280;49026;52.600;4.694;2023-04-01T05:21:00;99473.47;;;7.99;91.43
62725;BME280;49026;52.600;4.694;2023-04-01T05:23:27;99483.16;;;7.97;91.70
62725;BME280;49026;52.600;4.694;2023-04-01T05:25:52;99480.63;;;7.95;92.12
62725;BME280;49026;52.600;4.694;2023-04-01T05:28:20;99480.63;;;7.95;91.78
62725;BME280;49026;52.600;4.694;2023-04-01T05:30:46;99486.69;;;7.96;91.30
62725;BME280;49026;52.600;4.694;2023-04-01T05:33:12;99493.69;;;7.95;91.55
62725;BME280;49026;52.600;4.694;2023-04-01T05:35:38;99498.94;;;7.95;91.58
62725;BME280;49026;52.600;4.694;2023-04-01T05:38:04;99498.00;;;7.96;91.67
62725;BME280;49026;52.600;4.694;2023-04-01T05:40:29;99499.78;;;7.96;91.86
62725;BME280;49026;52.600;4.694;2023-04-01T05:42:56;99508.44;;;7.96;91.22
62725;BME280;49026;52.600;4.694;2023-04-01T05:45:21;99505.06;;;7.94;91.25
62725;BME280;49026;52.600;4.694;2023-04-01T05:47:47;99510.31;;;7.94;91.36
62725;BME280;49026;52.600;4.694;2023-04-01T05:50:12;99512.84;;;7.96;91.95
62725;BME280;49026;52.600;4.694;2023-04-01T05:52:38;99519.06;;;7.93;91.82
62725;BME280;49026;52.600;4.694;2023-04-01T05:55:04;99528.69;;;7.93;91.52
62725;BME280;49026;52.600;4.694;2023-04-01T05:57:33;99534.75;;;7.93;91.48
62725;BME280;49026;52.600;4.694;2023-04-01T06:00:02;99530.47;;;7.92;92.00
62725;BME280;49026;52.600;4.694;2023-04-01T06:02:27;99539.16;;;7.93;91.89
62725;BME280;49026;52.600;4.694;2023-04-01T06:05:02;99538.31;;;7.92;91.46
62725;BME280;49026;52.600;4.694;2023-04-01T06:07:28;99538.31;;;7.92;91.62
62725;BME280;49026;52.600;4.694;2023-04-01T06:09:54;99544.25;;;7.96;91.37
62725;BME280;49026;52.600;4.694;2023-04-01T06:12:24;99548.56;;;7.97;91.46
62725;BME280;49026;52.600;4.694;2023-04-01T06:15:29;99553.72;;;7.98;91.47
62725;BME280;49026;52.600;4.694;2023-04-01T06:18:15;99563.09;;;8.03;91.56
62725;BME280;49026;52.600;4.694;2023-04-01T06:31:51;99574.09;;;8.09;91.38
62725;BME280;49026;52.600;4.694;2023-04-01T06:34:41;99577.63;;;8.08;91.74
62725;BME280;49026;52.600;4.694;2023-04-01T06:37:26;99578.41;;;8.10;91.59
62725;BME280;49026;52.600;4.694;2023-04-01T06:43:04;99591.44;;;8.12;91.77
62725;BME280;49026;52.600;4.694;2023-04-01T06:46:00;99595.78;;;8.11;91.60
62725;BME280;49026;52.600;4.694;2023-04-01T06:53:54;99602.72;;;8.12;92.09
62725;BME280;49026;52.600;4.694;2023-04-01T06:56:25;99607.81;;;8.15;91.38
62725;BME280;49026;52.600;4.694;2023-04-01T06:59:02;99611.94;;;8.20;91.57
62725;BME280;49026;52.600;4.694;2023-04-01T07:01:35;99611.88;;;8.21;91.81
62725;BME280;49026;52.600;4.694;2023-04-01T07:04:18;99628.34;;;8.23;91.96
62725;BME280;49026;52.600;4.694;2023-04-01T07:06:54;99626.41;;;8.27;91.91
62725;BME280;49026;52.600;4.694;2023-04-01T07:09:26;99638.44;;;8.31;91.56
62725;BME280;49026;52.600;4.694;2023-04-01T07:11:56;99639.22;;;8.33;91.50
62725;BME280;49026;52.600;4.694;2023-04-01T07:14:35;99637.44;;;8.33;91.46
62725;BME280;49026;52.600;4.694;2023-04-01T07:19:36;99653.66;;;8.40;91.86
62725;BME280;49026;52.600;4.694;2023-04-01T07:22:36;99652.66;;;8.44;91.64
62725;BME280;49026;52.600;4.694;2023-04-01T07:25:22;99654.09;;;8.50;91.78
62725;BME280;49026;52.600;4.694;2023-04-01T07:27:52;99665.25;;;8.53;91.67
62725;BME280;49026;52.600;4.694;2023-04-01T07:30:23;99670.50;;;8.53;91.47
62725;BME280;49026;52.600;4.694;2023-04-01T07:33:08;99667.81;;;8.55;92.07
62725;BME280;49026;52.600;4.694;2023-04-01T07:35:44;99677.28;;;8.58;92.27
62725;BME280;49026;52.600;4.694;2023-04-01T07:43:53;99682.53;;;8.58;91.97
62725;BME280;49026;52.600;4.694;2023-04-01T07:49:34;99691.22;;;8.58;92.08
62725;BME280;49026;52.600;4.694;2023-04-01T07:52:08;99687.75;;;8.58;92.18
62725;BME280;49026;52.600;4.694;2023-04-01T07:54:42;99702.56;;;8.59;91.83
62725;BME280;49026;52.600;4.694;2023-04-01T07:57:36;99698.16;;;8.59;91.84
62725;BME280;49026;52.600;4.694;2023-04-01T08:08:49;99718.56;;;8.70;91.84
62725;BME280;49026;52.600;4.694;2023-04-01T08:19:01;99727.09;;;8.74;91.71
62725;BME280;49026;52.600;4.694;2023-04-01T08:21:39;99744.59;;;8.73;91.91
62725;BME280;49026;52.600;4.694;2023-04-01T08:24:33;99742.06;;;8.71;92.13
62725;BME280;49026;52.600;4.694;2023-04-01T08:27:05;99743.00;;;8.70;91.94
62725;BME280;49026;52.600;4.694;2023-04-01T08:32:28;99753.22;;;8.75;91.86
62725;BME280;49026;52.600;4.694;2023-04-01T08:35:14;99762.72;;;8.78;91.75
62725;BME280;49026;52.600;4.694;2023-04-01T08:37:44;99759.63;;;8.87;92.01
62725;BME280;49026;52.600;4.694;2023-04-01T08:42:51;99764.41;;;8.96;92.00
62725;BME280;49026;52.600;4.694;2023-04-01T09:10:49;99800.16;;;8.97;91.60
62725;BME280;49026;52.600;4.694;2023-04-01T09:16:26;99817.09;;;8.90;92.14
62725;BME280;49026;52.600;4.694;2023-04-01T09:19:14;99803.78;;;8.95;92.31
62725;BME280;49026;52.600;4.694;2023-04-01T09:27:25;99822.28;;;9.09;92.16
62725;BME280;49026;52.600;4.694;2023-04-01T09:30:03;99826.44;;;9.13;91.92
62725;BME280;49026;52.600;4.694;2023-04-01T09:36:02;99824.28;;;9.21;92.00
62725;BME280;49026;52.600;4.694;2023-04-01T09:38:57;99827.38;;;9.30;91.86
62725;BME280;49026;52.600;4.694;2023-04-01T09:41:30;99831.28;;;9.38;92.07
62725;BME280;49026;52.600;4.694;2023-04-01T09:44:06;99837.59;;;9.52;91.79
62725;BME280;49026;52.600;4.694;2023-04-01T09:49:35;99847.72;;;9.75;91.73
62725;BME280;49026;52.600;4.694;2023-04-01T09:55:02;99841.41;;;9.95;91.95
62725;BME280;49026;52.600;4.694;2023-04-01T10:00:34;99857.00;;;9.98;91.79
62725;BME280;49026;52.600;4.694;2023-04-01T10:17:24;99877.59;;;9.73;92.88
62725;BME280;49026;52.600;4.694;2023-04-01T10:22:24;99885.31;;;9.58;92.65
62725;BME280;49026;52.600;4.694;2023-04-01T10:25:39;99888.81;;;9.59;92.82
62725;BME280;49026;52.600;4.694;2023-04-01T10:33:46;99893.19;;;9.76;92.63
62725;BME280;49026;52.600;4.694;2023-04-01T10:36:37;99895.47;;;9.99;92.64
62725;BME280;49026;52.600;4.694;2023-04-01T10:48:09;99912.94;;;10.16;91.82
62725;BME280;49026;52.600;4.694;2023-04-01T10:51:01;99904.97;;;10.18;91.95
62725;BME280;49026;52.600;4.694;2023-04-01T10:56:40;99908.78;;;10.46;92.30
62725;BME280;49026;52.600;4.694;2023-04-01T10:59:20;99911.31;;;10.63;92.11
62725;BME280;49026;52.600;4.694;2023-04-01T11:19:39;99948.34;;;10.25;92.59
62725;BME280;49026;52.600;4.694;2023-04-01T11:33:52;99964.50;;;10.35;92.95
62725;BME280;49026;52.600;4.694;2023-04-01T11:36:25;99967.66;;;10.42;93.23
62725;BME280;49026;52.600;4.694;2023-04-01T11:44:26;99970.81;;;10.80;93.20
62725;BME280;49026;52.600;4.694;2023-04-01T11:46:57;99979.66;;;10.95;94.21
62725;BME280;49026;52.600;4.694;2023-04-01T11:52:12;99996.06;;;11.30;93.66
62725;BME280;49026;52.600;4.694;2023-04-01T11:57:52;99993.56;;;11.13;93.91
62725;BME280;49026;52.600;4.694;2023-04-01T12:03:36;99995.81;;;11.35;94.29
62725;BME280;49026;52.600;4.694;2023-04-01T12:18:38;100014.25;;;11.96;93.60
62725;BME280;49026;52.600;4.694;2023-04-01T12:32:21;100041.06;;;12.47;93.18
62725;BME280;49026;52.600;4.694;2023-04-01T12:35:15;100036.25;;;12.25;92.22
62725;BME280;49026;52.600;4.694;2023-04-01T12:43:31;100056.97;;;11.55;93.68
62725;BME280;49026;52.600;4.694;2023-04-01T12:49:07;100062.66;;;11.47;93.91
62725;BME280;49026;52.600;4.694;2023-04-01T12:55:02;100078.97;;;11.38;93.68
62725;BME280;49026;52.600;4.694;2023-04-01T13:00:44;100078.38;;;11.17;92.29
62725;BME280;49026;52.600;4.694;2023-04-01T13:11:23;100091.09;;;11.08;93.62
62725;BME280;49026;52.600;4.694;2023-04-01T13:19:51;100121.00;;;10.72;92.75
62725;BME280;49026;52.600;4.694;2023-04-01T13:22:35;100129.47;;;10.62;93.12
62725;BME280;49026;52.600;4.694;2023-04-01T13:28:01;100139.13;;;10.44;93.15
62725;BME280;49026;52.600;4.694;2023-04-01T13:30:43;100137.81;;;10.35;93.27
62725;BME280;49026;52.600;4.694;2023-04-01T13:33:24;100144.22;;;10.29;93.60
62725;BME280;49026;52.600;4.694;2023-04-01T13:44:22;100156.31;;;10.14;92.80
62725;BME280;49026;52.600;4.694;2023-04-01T13:47:03;100169.44;;;10.14;92.19
62725;BME280;49026;52.600;4.694;2023-04-01T14:03:32;100192.13;;;10.52;90.82
62725;BME280;49026;52.600;4.694;2023-04-01T14:11:56;100210.66;;;10.49;90.78
62725;BME280;49026;52.600;4.694;2023-04-01T14:17:47;100208.03;;;10.49;90.42
62725;BME280;49026;52.600;4.694;2023-04-01T14:20:28;100221.97;;;10.51;90.76
62725;BME280;49026;52.600;4.694;2023-04-01T14:23:16;100220.41;;;10.47;91.25
62725;BME280;49026;52.600;4.694;2023-04-01T14:28:54;100223.72;;;10.33;91.83
62725;BME280;49026;52.600;4.694;2023-04-01T14:31:43;100232.78;;;10.26;91.23
62725;BME280;49026;52.600;4.694;2023-04-01T14:34:23;100242.56;;;10.22;91.24
62725;BME280;49026;52.600;4.694;2023-04-01T14:45:55;100269.00;;;10.19;89.36
62725;BME280;49026;52.600;4.694;2023-04-01T14:48:37;100274.66;;;10.10;89.86
62725;BME280;49026;52.600;4.694;2023-04-01T14:51:11;100266.31;;;10.01;90.08
62725;BME280;49026;52.600;4.694;2023-04-01T14:53:44;100274.63;;;9.92;89.89
62725;BME280;49026;52.600;4.694;2023-04-01T14:56:38;100300.38;;;9.84;90.32
62725;BME280;49026;52.600;4.694;2023-04-01T14:59:09;100290.97;;;9.78;90.92
62725;BME280;49026;52.600;4.694;2023-04-01T15:16:22;100319.56;;;9.66;90.99
62725;BME280;49026;52.600;4.694;2023-04-01T15:24:48;100343.94;;;9.47;90.45
62725;BME280;49026;52.600;4.694;2023-04-01T15:27:44;100356.47;;;9.40;90.45
62725;BME280;49026;52.600;4.694;2023-04-01T15:30:30;100351.06;;;9.24;90.00
62725;BME280;49026;52.600;4.694;2023-04-01T15:33:13;100358.31;;;9.18;90.39
62725;BME280;49026;52.600;4.694;2023-04-01T15:52:49;100396.75;;;9.19;91.07
62725;BME280;49026;52.600;4.694;2023-04-01T16:01:44;100413.56;;;9.13;89.98
62725;BME280;49026;52.600;4.694;2023-04-01T16:07:24;100422.09;;;9.18;89.83
62725;BME280;49026;52.600;4.694;2023-04-01T16:10:00;100435.38;;;9.14;89.60
62725;BME280;49026;52.600;4.694;2023-04-01T16:15:45;100440.16;;;9.04;89.56
62725;BME280;49026;52.600;4.694;2023-04-01T16:21:01;100450.88;;;8.98;89.75
62725;BME280;49026;52.600;4.694;2023-04-01T16:34:14;100486.16;;;8.89;89.90
62725;BME280;49026;52.600;4.694;2023-04-01T16:36:48;100479.94;;;8.92;90.01
62725;BME280;49026;52.600;4.694;2023-04-01T16:39:26;100486.94;;;8.91;89.68
62725;BME280;49026;52.600;4.694;2023-04-01T16:45:06;100501.31;;;8.81;89.72
62725;BME280;49026;52.600;4.694;2023-04-01T16:47:47;100501.44;;;8.78;89.39
62725;BME280;49026;52.600;4.694;2023-04-01T16:50:22;100504.13;;;8.76;89.05
62725;BME280;49026;52.600;4.694;2023-04-01T16:55:18;100517.44;;;8.70;87.98
62725;BME280;49026;52.600;4.694;2023-04-01T16:57:51;100528.84;;;8.69;88.61
62725;BME280;49026;52.600;4.694;2023-04-01T17:00:27;100537.44;;;8.73;88.75
62725;BME280;49026;52.600;4.694;2023-04-01T17:03:12;100540.78;;;8.76;89.37
62725;BME280;49026;52.600;4.694;2023-04-01T17:05:55;100559.22;;;8.73;88.24
62725;BME280;49026;52.600;4.694;2023-04-01T17:14:29;100568.56;;;8.57;88.61
62725;BME280;49026;52.600;4.694;2023-04-01T17:41:57;100640.50;;;7.93;88.82
62725;BME280;49026;52.600;4.694;2023-04-01T17:44:29;100649.59;;;7.81;88.88
62725;BME280;49026;52.600;4.694;2023-04-01T17:54:56;100675.41;;;7.65;90.02
62725;BME280;49026;52.600;4.694;2023-04-01T17:57:46;100670.34;;;7.59;89.96
62725;BME280;49026;52.600;4.694;2023-04-01T18:05:23;100696.72;;;7.51;89.40
62725;BME280;49026;52.600;4.694;2023-04-01T18:10:48;100711.72;;;7.45;89.92
62725;BME280;49026;52.600;4.694;2023-04-01T18:21:36;100727.66;;;7.37;89.55
62725;BME280;49026;52.600;4.694;2023-04-01T18:26:43;100746.91;;;7.33;90.08
62725;BME280;49026;52.600;4.694;2023-04-01T18:32:15;100748.84;;;7.26;89.48
62725;BME280;49026;52.600;4.694;2023-04-01T18:34:53;100774.19;;;7.24;89.77
62725;BME280;49026;52.600;4.694;2023-04-01T18:37:29;100767.28;;;7.20;88.87
62725;BME280;49026;52.600;4.694;2023-04-01T18:42:46;100777.13;;;7.12;89.01
62725;BME280;49026;52.600;4.694;2023-04-01T18:45:28;100794.63;;;7.08;89.03
62725;BME280;49026;52.600;4.694;2023-04-01T18:48:03;100799.00;;;7.08;89.81
62725;BME280;49026;52.600;4.694;2023-04-01T18:50:42;100804.31;;;7.04;89.79
62725;BME280;49026;52.600;4.694;2023-04-01T18:53:28;100807.84;;;7.03;89.69
62725;BME280;49026;52.600;4.694;2023-04-01T18:56:05;100821.75;;;7.04;89.66
62725;BME280;49026;52.600;4.694;2023-04-01T18:58:42;100834.81;;;7.04;89.76
62725;BME280;49026;52.600;4.694;2023-04-01T19:06:58;100858.50;;;6.96;88.84
62725;BME280;49026;52.600;4.694;2023-04-01T19:09:48;100860.25;;;6.96;88.38
62725;BME280;49026;52.600;4.694;2023-04-01T19:24:00;100889.28;;;6.85;89.32
62725;BME280;49026;52.600;4.694;2023-04-01T19:29:32;100902.34;;;6.85;89.82
62725;BME280;49026;52.600;4.694;2023-04-01T19:32:24;100911.91;;;6.84;89.19
62725;BME280;49026;52.600;4.694;2023-04-01T19:35:06;100925.84;;;6.85;89.01
62725;BME280;49026;52.600;4.694;2023-04-01T19:37:51;100930.22;;;6.83;89.11
62725;BME280;49026;52.600;4.694;2023-04-01T19:43:06;100940.84;;;6.77;90.21
62725;BME280;49026;52.600;4.694;2023-04-01T19:45:38;100947.78;;;6.76;89.84
62725;BME280;49026;52.600;4.694;2023-04-01T19:48:32;100951.31;;;6.75;90.11
62725;BME280;49026;52.600;4.694;2023-04-01T19:51:08;100957.34;;;6.77;89.83
62725;BME280;49026;52.600;4.694;2023-04-01T19:56:19;100963.59;;;6.72;89.74
62725;BME280;49026;52.600;4.694;2023-04-01T19:59:09;100969.59;;;6.75;89.36
62725;BME280;49026;52.600;4.694;2023-04-01T20:01:50;100973.84;;;6.79;90.08
62725;BME280;49026;52.600;4.694;2023-04-01T20:04:57;100981.56;;;6.84;89.53
62725;BME280;49026;52.600;4.694;2023-04-01T20:07:26;100979.84;;;6.83;89.87
62725;BME280;49026;52.600;4.694;2023-04-01T20:10:16;100987.72;;;6.81;89.93
62725;BME280;49026;52.600;4.694;2023-04-01T20:12:50;100997.38;;;6.78;90.82
62725;BME280;49026;52.600;4.694;2023-04-01T20:15:54;101005.28;;;6.75;90.23
62725;BME280;49026;52.600;4.694;2023-04-01T20:18:34;101022.69;;;6.74;90.66
62725;BME280;49026;52.600;4.694;2023-04-01T20:21:06;101020.25;;;6.66;89.85
62725;BME280;49026;52.600;4.694;2023-04-01T20:23:45;101021.28;;;6.59;89.36
62725;BME280;49026;52.600;4.694;2023-04-01T20:26:13;101029.31;;;6.50;88.88
62725;BME280;49026;52.600;4.694;2023-04-01T20:31:43;101042.53;;;6.41;89.64
62725;BME280;49026;52.600;4.694;2023-04-01T20:34:33;101046.06;;;6.38;89.68
62725;BME280;49026;52.600;4.694;2023-04-01T20:45:56;101074.28;;;6.18;88.71
62725;BME280;49026;52.600;4.694;2023-04-01T20:48:46;101087.31;;;6.18;89.31
62725;BME280;49026;52.600;4.694;2023-04-01T20:51:23;101083.88;;;6.16;89.44
62725;BME280;49026;52.600;4.694;2023-04-01T20:54:22;101097.00;;;6.11;88.30
62725;BME280;49026;52.600;4.694;2023-04-01T20:57:11;101096.16;;;6.10;88.88
62725;BME280;49026;52.600;4.694;2023-04-01T21:05:22;101116.22;;;6.07;88.55
62725;BME280;49026;52.600;4.694;2023-04-01T21:10:43;101133.69;;;6.03;88.17
62725;BME280;49026;52.600;4.694;2023-04-01T21:22:10;101156.41;;;5.95;88.88
62725;BME280;49026;52.600;4.694;2023-04-01T21:39:15;101179.16;;;5.85;88.85
62725;BME280;49026;52.600;4.694;2023-04-01T21:44:33;101187.00;;;5.82;88.53
62725;BME280;49026;52.600;4.694;2023-04-01T21:47:35;101186.19;;;5.79;89.13
62725;BME280;49026;52.600;4.694;2023-04-01T22:06:56;101241.03;;;5.72;88.61
62725;BME280;49026;52.600;4.694;2023-04-01T22:09:45;101231.53;;;5.70;88.98
62725;BME280;49026;52.600;4.694;2023-04-01T22:12:27;101235.84;;;5.69;88.47
62725;BME280;49026;52.600;4.694;2023-04-01T22:15:40;101245.44;;;5.69;88.00
62725;BME280;49026;52.600;4.694;2023-04-01T22:18:34;101255.00;;;5.68;87.86
62725;BME280;49026;52.600;4.694;2023-04-01T22:21:28;101263.69;;;5.69;87.62